createdAt,value
2022-11-20T00:01:20.579Z,11.25
2022-11-20T00:03:47.927Z,12.07
2022-11-20T00:06:16.951Z,11.52
2022-11-20T00:08:43.903Z,12.20
2022-11-20T00:11:16.170Z,12.45
2022-11-20T00:13:44.197Z,12.45
2022-11-20T00:16:12.299Z,12.90
2022-11-20T00:18:38.697Z,12.32
2022-11-20T00:21:06.890Z,12.13
2022-11-20T00:23:33.405Z,11.70
2022-11-20T00:26:05.002Z,11.68
2022-11-20T00:28:31.646Z,12.17
2022-11-20T00:31:06.614Z,12.55
2022-11-20T00:33:33.357Z,11.77
2022-11-20T00:36:02.155Z,12.02
2022-11-20T00:38:29.005Z,11.57
2022-11-20T00:40:57.462Z,11.90
2022-11-20T00:43:24.076Z,11.57
2022-11-20T00:45:50.679Z,12.02
2022-11-20T00:48:17.359Z,11.75
2022-11-20T00:50:43.851Z,10.88
2022-11-20T00:53:10.298Z,11.90
2022-11-20T00:55:36.953Z,12.35
2022-11-20T00:58:04.635Z,12.57
2022-11-20T01:00:31.333Z,12.18
2022-11-20T01:02:57.715Z,12.50
2022-11-20T01:05:24.160Z,11.63
2022-11-20T01:07:50.614Z,12.90
2022-11-20T01:10:17.170Z,13.00
2022-11-20T01:12:43.675Z,13.57
2022-11-20T01:15:10.329Z,13.38
2022-11-20T01:17:36.918Z,13.70
2022-11-20T01:20:03.592Z,13.82
2022-11-20T01:22:30.035Z,13.48
2022-11-20T01:24:56.503Z,12.98
2022-11-20T01:27:23.020Z,12.50
2022-11-20T01:29:49.437Z,13.00
2022-11-20T01:32:16.005Z,11.93
2022-11-20T01:34:42.599Z,13.15
2022-11-20T01:37:08.975Z,12.07
2022-11-20T01:39:35.533Z,12.95
2022-11-20T01:42:20.372Z,12.97
2022-11-20T01:44:54.671Z,12.55
2022-11-20T01:47:33.202Z,13.48
2022-11-20T01:50:05.368Z,12.93
2022-11-20T01:52:37.788Z,13.20
2022-11-20T01:55:14.096Z,12.07
2022-11-20T01:57:41.765Z,12.65
2022-11-20T02:00:12.348Z,12.85
2022-11-20T02:02:41.508Z,12.85
2022-11-20T02:05:36.873Z,13.73
2022-11-20T02:08:05.284Z,12.90
2022-11-20T02:10:32.950Z,13.00
2022-11-20T02:13:18.852Z,13.07
2022-11-20T02:15:45.910Z,12.25
2022-11-20T02:18:14.750Z,13.43
2022-11-20T02:20:44.827Z,12.77
2022-11-20T02:23:38.939Z,12.98
2022-11-20T02:26:09.967Z,12.48
2022-11-20T02:28:36.722Z,11.93
2022-11-20T02:31:04.224Z,13.00
2022-11-20T02:33:30.730Z,12.50
2022-11-20T02:35:57.108Z,12.10
2022-11-20T02:38:24.282Z,12.95
2022-11-20T02:40:55.338Z,12.10
2022-11-20T02:43:22.200Z,13.18
2022-11-20T02:45:48.903Z,13.20
2022-11-20T02:48:15.328Z,13.23
2022-11-20T02:50:41.913Z,14.00
2022-11-20T02:53:08.852Z,13.07
2022-11-20T02:55:35.676Z,12.50
2022-11-20T02:58:02.169Z,13.67
2022-11-20T03:00:28.607Z,13.48
2022-11-20T03:02:55.033Z,14.23
2022-11-20T03:05:21.558Z,15.00
2022-11-20T03:07:47.978Z,13.50
2022-11-20T03:10:14.563Z,13.17
2022-11-20T03:12:41.041Z,12.73
2022-11-20T03:15:07.912Z,13.55
2022-11-20T03:17:34.380Z,13.73
2022-11-20T03:20:00.919Z,13.65
2022-11-20T03:22:30.211Z,14.07
2022-11-20T03:24:56.819Z,14.40
2022-11-20T03:27:23.236Z,13.77
2022-11-20T03:29:49.638Z,13.82
2022-11-20T03:32:16.156Z,14.48
2022-11-20T03:34:42.502Z,13.70
2022-11-20T03:37:09.031Z,13.70
2022-11-20T03:39:35.473Z,13.68
2022-11-20T03:42:01.996Z,14.77
2022-11-20T03:44:28.439Z,14.05
2022-11-20T03:46:54.781Z,13.73
2022-11-20T03:49:21.485Z,13.68
2022-11-20T03:51:48.637Z,13.20
2022-11-20T03:54:15.155Z,14.25
2022-11-20T03:56:41.642Z,14.32
2022-11-20T03:59:10.786Z,13.47
2022-11-20T04:01:43.197Z,13.75
2022-11-20T04:04:13.246Z,14.70
2022-11-20T04:06:39.648Z,14.23
2022-11-20T04:09:06.976Z,13.63
2022-11-20T04:11:37.186Z,13.77
2022-11-20T04:14:05.816Z,14.52
2022-11-20T04:16:37.524Z,15.30
2022-11-20T04:19:11.571Z,13.30
2022-11-20T04:21:38.303Z,13.95
2022-11-20T04:24:05.360Z,13.73
2022-11-20T04:26:32.022Z,13.85
2022-11-20T04:28:59.794Z,14.07
2022-11-20T04:31:29.120Z,13.88
2022-11-20T04:33:56.141Z,13.70
2022-11-20T04:36:27.712Z,13.83
2022-11-20T04:38:57.411Z,14.02
2022-11-20T04:41:26.532Z,13.25
2022-11-20T04:44:04.297Z,13.70
2022-11-20T04:46:40.589Z,12.93
2022-11-20T04:49:08.000Z,13.80
2022-11-20T04:51:34.739Z,13.50
2022-11-20T04:54:01.355Z,14.60
2022-11-20T04:56:27.938Z,13.60
2022-11-20T04:58:54.369Z,14.48
2022-11-20T05:01:23.967Z,14.97
2022-11-20T05:03:50.897Z,14.55
2022-11-20T05:06:19.512Z,14.38
2022-11-20T05:08:45.973Z,13.75
2022-11-20T05:11:15.470Z,13.95
2022-11-20T05:13:42.205Z,14.80
2022-11-20T05:16:18.620Z,14.45
2022-11-20T05:18:45.391Z,14.30
2022-11-20T05:21:13.241Z,14.60
2022-11-20T05:23:40.588Z,14.80
2022-11-20T05:26:08.946Z,14.70
2022-11-20T05:28:35.545Z,14.57
2022-11-20T05:31:27.248Z,15.57
2022-11-20T05:33:55.329Z,14.50
2022-11-20T05:36:21.781Z,14.80
2022-11-20T05:38:50.923Z,15.53
2022-11-20T05:41:20.115Z,14.45
2022-11-20T05:43:48.249Z,14.95
2022-11-20T05:46:16.727Z,14.63
2022-11-20T05:48:46.218Z,13.52
2022-11-20T05:51:16.975Z,14.70
2022-11-20T05:53:48.285Z,15.98
2022-11-20T05:56:18.871Z,15.40
2022-11-20T05:58:46.240Z,15.93
2022-11-20T06:01:18.460Z,15.15
2022-11-20T06:03:48.227Z,15.43
2022-11-20T06:06:16.068Z,15.75
2022-11-20T06:08:42.778Z,17.33
2022-11-20T06:11:11.288Z,16.10
2022-11-20T06:13:41.833Z,16.75
2022-11-20T06:16:09.940Z,17.60
2022-11-20T06:18:36.724Z,17.98
2022-11-20T06:21:13.287Z,17.52
2022-11-20T06:23:40.293Z,16.58
2022-11-20T06:26:11.973Z,17.15
2022-11-20T06:28:38.965Z,18.10
2022-11-20T06:31:06.752Z,16.98
2022-11-20T06:33:33.695Z,16.27
2022-11-20T06:36:05.650Z,17.20
2022-11-20T06:38:35.548Z,16.23
2022-11-20T06:41:02.101Z,16.80
2022-11-20T06:43:29.831Z,16.73
2022-11-20T06:45:58.473Z,17.17
2022-11-20T06:48:26.600Z,17.70
2022-11-20T06:50:53.133Z,17.33
2022-11-20T06:53:19.809Z,16.63
2022-11-20T06:55:47.867Z,17.35
2022-11-20T06:58:15.858Z,16.42
2022-11-20T07:00:42.627Z,17.67
2022-11-20T07:03:11.367Z,17.77
2022-11-20T07:05:39.268Z,17.43
2022-11-20T07:08:06.056Z,18.33
2022-11-20T07:10:33.492Z,18.10
2022-11-20T07:13:00.589Z,16.83
2022-11-20T07:15:27.516Z,17.35
2022-11-20T07:17:53.977Z,17.13
2022-11-20T07:20:20.592Z,16.85
2022-11-20T07:22:47.133Z,18.08
2022-11-20T07:25:13.630Z,17.08
2022-11-20T07:27:40.089Z,16.70
2022-11-20T07:30:07.808Z,17.03
2022-11-20T07:32:34.294Z,17.17
2022-11-20T07:35:00.944Z,18.05
2022-11-20T07:37:27.301Z,16.88
2022-11-20T07:39:53.707Z,17.05
2022-11-20T07:42:20.078Z,17.00
2022-11-20T07:44:46.596Z,16.25
2022-11-20T07:47:12.991Z,18.02
2022-11-20T07:49:39.425Z,16.20
2022-11-20T07:52:05.804Z,17.05
2022-11-20T07:54:32.733Z,17.53
2022-11-20T07:56:59.157Z,17.35
2022-11-20T07:59:25.670Z,17.35
2022-11-20T08:01:52.142Z,17.65
2022-11-20T08:04:18.804Z,16.45
2022-11-20T08:06:45.240Z,24.20
2022-11-20T08:09:11.815Z,18.45
2022-11-20T08:11:57.241Z,16.67
2022-11-20T08:14:23.659Z,16.98
2022-11-20T08:16:50.819Z,18.45
2022-11-20T08:19:19.055Z,18.17
2022-11-20T08:21:46.030Z,18.65
2022-11-20T08:24:13.008Z,16.75
2022-11-20T08:26:40.521Z,16.73
2022-11-20T08:29:07.305Z,17.00
2022-11-20T08:31:33.918Z,15.27
2022-11-20T08:34:04.968Z,16.13
2022-11-20T08:36:35.912Z,16.13
2022-11-20T08:39:03.396Z,16.52
2022-11-20T08:41:32.696Z,15.57
2022-11-20T08:44:04.263Z,14.47
2022-11-20T08:46:40.267Z,14.95
2022-11-20T08:49:08.864Z,16.30
2022-11-20T08:51:36.053Z,15.50
2022-11-20T08:54:03.219Z,14.48
2022-11-20T08:56:29.770Z,14.73
2022-11-20T09:01:42.919Z,14.48
2022-11-20T09:04:09.365Z,14.77
2022-11-20T09:06:35.820Z,14.45
2022-11-20T09:09:06.596Z,14.80
2022-11-20T09:11:35.075Z,14.25
2022-11-20T09:14:03.548Z,13.75
2022-11-20T09:16:29.965Z,13.63
2022-11-20T09:19:20.269Z,14.77
2022-11-20T09:21:42.940Z,13.00
2022-11-20T09:24:09.423Z,13.75
2022-11-20T09:26:35.887Z,13.45
2022-11-20T09:29:02.523Z,12.15
2022-11-20T09:31:28.920Z,12.82
2022-11-20T09:33:55.554Z,13.23
2022-11-20T09:36:22.023Z,13.35
2022-11-20T09:38:49.294Z,13.07
2022-11-20T09:41:40.575Z,13.35
2022-11-20T09:44:28.794Z,13.00
2022-11-20T09:47:03.901Z,12.73
2022-11-20T09:49:45.528Z,11.13
2022-11-20T09:52:30.941Z,12.40
2022-11-20T09:54:57.863Z,8.85
2022-11-20T09:57:35.059Z,8.18
2022-11-20T10:00:03.471Z,8.53
2022-11-20T10:02:37.138Z,7.70
2022-11-20T10:05:25.963Z,8.00
2022-11-20T10:08:15.011Z,9.40
2022-11-20T10:10:50.760Z,7.68
2022-11-20T10:13:33.864Z,6.77
2022-11-20T10:19:10.628Z,6.30
2022-11-20T10:21:45.895Z,6.50
2022-11-20T10:24:15.639Z,6.45
2022-11-20T10:26:50.996Z,7.10
2022-11-20T10:29:20.266Z,9.90
2022-11-20T10:31:52.480Z,6.97
2022-11-20T10:34:32.840Z,6.60
2022-11-20T10:37:04.695Z,7.45
2022-11-20T10:39:40.337Z,10.13
2022-11-20T10:42:14.299Z,7.50
2022-11-20T10:45:05.850Z,8.20
2022-11-20T10:47:33.410Z,7.18
2022-11-20T10:50:05.389Z,7.13
2022-11-20T10:53:06.073Z,6.80
2022-11-20T10:55:59.989Z,7.47
2022-11-20T10:58:44.968Z,6.80
2022-11-20T11:01:24.193Z,6.75
2022-11-20T11:03:55.866Z,7.10
2022-11-20T11:06:43.796Z,7.33
2022-11-20T11:09:17.271Z,7.25
2022-11-20T11:11:43.758Z,7.70
2022-11-20T11:14:13.337Z,7.75
2022-11-20T11:16:57.793Z,10.15
2022-11-20T11:19:25.569Z,11.93
2022-11-20T11:21:56.192Z,11.25
2022-11-20T11:24:42.291Z,10.70
2022-11-20T11:27:17.366Z,8.13
2022-11-20T11:29:45.284Z,10.35
2022-11-20T11:32:22.558Z,9.43
2022-11-20T11:35:07.411Z,7.25
2022-11-20T11:37:36.786Z,7.50
2022-11-20T11:42:58.725Z,7.40
2022-11-20T11:45:25.766Z,7.70
2022-11-20T11:47:54.886Z,8.43
2022-11-20T11:50:23.812Z,8.70
2022-11-20T11:53:16.720Z,8.20
2022-11-20T11:56:08.584Z,8.45
2022-11-20T11:58:56.100Z,7.53
2022-11-20T12:01:32.830Z,8.55
2022-11-20T12:04:28.083Z,8.23
2022-11-20T12:07:44.903Z,8.27
2022-11-20T12:10:04.051Z,8.63
2022-11-20T12:12:42.038Z,8.30
2022-11-20T12:15:13.868Z,8.45
2022-11-20T12:17:40.368Z,10.23
2022-11-20T12:20:15.446Z,9.32
2022-11-20T12:22:56.265Z,9.57
2022-11-20T12:25:30.910Z,8.23
2022-11-20T12:28:13.834Z,17.42
2022-11-20T12:31:10.715Z,8.65
2022-11-20T12:33:53.875Z,8.05
2022-11-20T12:36:37.551Z,8.32
2022-11-20T12:39:18.354Z,8.43
2022-11-20T12:42:15.826Z,7.85
2022-11-20T12:45:23.850Z,8.38
2022-11-20T12:47:53.174Z,8.20
2022-11-20T12:51:14.604Z,8.13
2022-11-20T12:54:23.261Z,8.50
2022-11-20T12:57:08.648Z,8.52
2022-11-20T12:59:53.396Z,8.55
2022-11-20T13:02:36.728Z,8.40
2022-11-20T13:05:18.876Z,7.90
2022-11-20T13:07:46.823Z,7.90
2022-11-20T13:10:27.761Z,8.07
2022-11-20T13:13:02.236Z,8.35
2022-11-20T13:15:49.318Z,8.73
2022-11-20T13:18:16.636Z,10.02
2022-11-20T13:20:47.740Z,8.70
2022-11-20T13:23:28.335Z,8.98
2022-11-20T13:26:17.548Z,10.25
2022-11-20T13:28:44.147Z,9.80
2022-11-20T13:31:36.108Z,13.90
2022-11-20T13:34:07.020Z,14.33
2022-11-20T13:36:35.895Z,13.88
2022-11-20T13:39:02.862Z,15.85
2022-11-20T13:41:34.989Z,15.55
2022-11-20T13:44:13.715Z,14.73
2022-11-20T13:46:46.232Z,14.43
2022-11-20T13:49:35.179Z,13.55
2022-11-20T13:52:31.320Z,14.07
2022-11-20T13:55:32.113Z,13.55
2022-11-20T13:58:05.300Z,14.13
2022-11-20T14:00:31.858Z,13.93
2022-11-20T14:03:07.201Z,14.65
2022-11-20T14:06:03.794Z,15.00
2022-11-20T14:08:49.265Z,13.25
2022-11-20T14:11:25.307Z,14.77
2022-11-20T14:14:05.371Z,20.07
2022-11-20T14:16:37.008Z,13.30
2022-11-20T14:19:21.567Z,13.35
2022-11-20T14:22:09.379Z,14.05
2022-11-20T14:24:35.839Z,13.20
2022-11-20T14:27:02.878Z,12.83
2022-11-20T14:29:39.624Z,14.00
2022-11-20T14:32:06.307Z,14.85
2022-11-20T14:34:38.331Z,17.08
2022-11-20T14:37:07.276Z,15.27
2022-11-20T14:39:36.360Z,14.73
2022-11-20T14:42:11.869Z,16.70
2022-11-20T14:44:38.997Z,17.48
2022-11-20T14:47:06.053Z,15.98
2022-11-20T14:49:33.124Z,14.60
2022-11-20T14:52:11.504Z,14.20
2022-11-20T14:54:50.514Z,17.17
2022-11-20T14:57:29.252Z,17.60
2022-11-20T15:00:06.721Z,16.48
2022-11-20T15:02:33.441Z,18.77
2022-11-20T15:05:04.149Z,16.53
2022-11-20T15:07:36.481Z,16.08
2022-11-20T15:10:12.248Z,16.73
2022-11-20T15:12:46.911Z,17.35
2022-11-20T15:15:18.479Z,17.58
2022-11-20T15:17:44.944Z,17.63
2022-11-20T15:20:16.672Z,18.67
2022-11-20T15:22:43.339Z,18.35
2022-11-20T15:25:17.667Z,20.30
2022-11-20T15:27:45.608Z,18.80
2022-11-20T15:30:17.910Z,18.43
2022-11-20T15:32:45.652Z,20.02
2022-11-20T15:35:12.232Z,19.83
2022-11-20T15:37:39.212Z,19.17
2022-11-20T15:40:07.050Z,19.05
2022-11-20T15:42:34.133Z,15.03
2022-11-20T15:45:01.120Z,17.73
2022-11-20T15:47:33.697Z,15.60
2022-11-20T15:50:00.333Z,17.85
2022-11-20T15:52:30.448Z,19.33
2022-11-20T15:54:59.715Z,18.53
2022-11-20T15:57:26.309Z,19.52
2022-11-20T15:59:52.895Z,20.30
2022-11-20T16:02:19.707Z,20.38
2022-11-20T16:04:46.202Z,20.42
2022-11-20T16:07:12.813Z,16.60
2022-11-20T16:09:39.404Z,17.83
2022-11-20T16:12:06.070Z,18.30
2022-11-20T16:14:51.131Z,18.30
2022-11-20T16:17:37.558Z,18.38
2022-11-20T16:20:04.288Z,16.87
2022-11-20T16:22:30.782Z,19.17
2022-11-20T16:24:57.170Z,18.75
2022-11-20T16:27:23.690Z,19.00
2022-11-20T16:29:50.161Z,18.23
2022-11-20T16:32:16.645Z,18.37
2022-11-20T16:34:43.098Z,18.33
2022-11-20T16:37:09.579Z,16.98
2022-11-20T16:39:36.039Z,18.00
2022-11-20T16:42:05.847Z,28.20
2022-11-20T16:44:32.394Z,21.50
2022-11-20T16:46:59.016Z,19.45
2022-11-20T16:49:26.069Z,22.00
2022-11-20T16:51:52.524Z,22.45
2022-11-20T16:54:21.145Z,21.13
2022-11-20T16:56:48.260Z,20.40
2022-11-20T16:59:14.669Z,21.00
2022-11-20T17:01:43.161Z,23.55
2022-11-20T17:04:10.157Z,23.13
2022-11-20T17:06:44.107Z,21.52
2022-11-20T17:09:11.243Z,15.00
2022-11-20T17:11:37.801Z,7.60
2022-11-20T17:14:07.254Z,5.97
2022-11-20T17:16:35.533Z,5.82
2022-11-20T17:19:03.925Z,5.40
2022-11-20T17:21:31.989Z,5.47
2022-11-20T17:24:03.453Z,6.82
2022-11-20T17:26:30.223Z,7.95
2022-11-20T17:29:02.685Z,7.13
2022-11-20T17:31:30.572Z,5.72
2022-11-20T17:33:59.593Z,5.60
2022-11-20T17:36:26.837Z,4.97
2022-11-20T17:38:53.275Z,5.15
2022-11-20T17:41:22.353Z,4.72
2022-11-20T17:43:49.744Z,5.25
2022-11-20T17:46:21.310Z,5.30
2022-11-20T17:48:49.490Z,5.78
2022-11-20T17:51:19.174Z,5.47
2022-11-20T17:53:51.665Z,5.50
2022-11-20T17:56:37.653Z,4.95
2022-11-20T17:59:06.523Z,5.17
2022-11-20T18:01:33.041Z,4.25
2022-11-20T18:03:59.746Z,4.45
2022-11-20T18:06:27.770Z,5.50
2022-11-20T18:08:54.556Z,3.70
2022-11-20T18:11:24.145Z,3.30
2022-11-20T18:14:15.873Z,6.40
2022-11-20T18:16:52.807Z,5.43
2022-11-20T18:19:29.854Z,3.60
2022-11-20T18:22:01.313Z,6.45
2022-11-20T18:24:28.087Z,4.23
2022-11-20T18:26:54.739Z,5.07
2022-11-20T18:29:21.789Z,8.43
2022-11-20T18:31:48.990Z,3.45
2022-11-20T18:34:15.994Z,2.75
2022-11-20T18:36:42.769Z,6.50
2022-11-20T18:39:11.976Z,5.88
2022-11-20T18:41:57.573Z,6.18
2022-11-20T18:44:45.012Z,11.82
2022-11-20T18:47:16.251Z,18.60
2022-11-20T18:49:46.301Z,9.17
2022-11-20T18:52:13.313Z,7.65
2022-11-20T18:54:39.869Z,9.98
2022-11-20T18:57:06.353Z,5.47
2022-11-20T18:59:32.985Z,6.00
2022-11-20T19:01:59.552Z,6.07
2022-11-20T19:04:26.597Z,5.95
2022-11-20T19:06:56.141Z,4.10
2022-11-20T19:09:24.230Z,3.67
2022-11-20T19:11:51.490Z,3.00
2022-11-20T19:14:18.480Z,3.50
2022-11-20T19:16:44.981Z,3.00
2022-11-20T19:19:11.959Z,3.67
2022-11-20T19:21:38.507Z,2.50
2022-11-20T19:24:05.617Z,2.70
2022-11-20T19:26:35.447Z,2.80
2022-11-20T19:29:02.909Z,2.83
2022-11-20T19:31:29.412Z,3.70
2022-11-20T19:33:56.867Z,3.15
2022-11-20T19:36:27.071Z,2.42
2022-11-20T19:38:54.514Z,2.63
2022-11-20T19:41:28.837Z,3.15
2022-11-20T19:44:06.819Z,2.65
2022-11-20T19:46:34.872Z,2.55
2022-11-20T19:49:02.121Z,3.53
2022-11-20T19:51:31.804Z,3.23
2022-11-20T19:53:59.745Z,3.50
2022-11-20T19:56:28.101Z,3.78
2022-11-20T19:58:55.077Z,3.35
2022-11-20T20:01:27.594Z,3.60
2022-11-20T20:03:55.237Z,3.57
2022-11-20T20:06:24.586Z,3.83
2022-11-20T20:09:03.503Z,4.30
2022-11-20T20:11:32.749Z,3.30
2022-11-20T20:14:06.888Z,5.05
2022-11-20T20:16:34.425Z,3.73
2022-11-20T20:19:02.755Z,3.63
2022-11-20T20:21:30.710Z,3.95
2022-11-20T20:23:58.410Z,3.47
2022-11-20T20:26:27.250Z,3.47
2022-11-20T20:28:53.859Z,3.57
2022-11-20T20:31:24.484Z,3.10
2022-11-20T20:33:51.123Z,3.30
2022-11-20T20:36:21.020Z,3.35
2022-11-20T20:38:47.667Z,3.72
2022-11-20T20:41:14.919Z,4.30
2022-11-20T20:43:59.987Z,3.03
2022-11-20T20:46:26.627Z,3.10
2022-11-20T20:48:54.945Z,3.40
2022-11-20T20:51:22.794Z,2.53
2022-11-20T20:53:49.909Z,2.93
2022-11-20T20:56:17.704Z,3.53
2022-11-20T20:58:44.475Z,2.60
2022-11-20T21:01:14.409Z,4.50
2022-11-20T21:03:41.712Z,4.53
2022-11-20T21:06:10.041Z,2.50
2022-11-20T21:08:40.462Z,3.80
2022-11-20T21:11:16.380Z,3.28
2022-11-20T21:13:44.138Z,4.30
2022-11-20T21:16:11.973Z,5.75
2022-11-20T21:18:38.556Z,3.10
2022-11-20T21:21:25.462Z,3.65
2022-11-20T21:23:53.450Z,2.15
2022-11-20T21:26:20.880Z,3.20
2022-11-20T21:28:47.473Z,3.67
2022-11-20T21:31:22.302Z,3.40
2022-11-20T21:33:50.963Z,2.47
2022-11-20T21:36:20.254Z,3.60
2022-11-20T21:38:47.785Z,2.40
2022-11-20T21:41:15.337Z,2.20
2022-11-20T21:43:42.985Z,2.50
2022-11-20T21:46:12.309Z,2.95
2022-11-20T21:48:40.906Z,2.28
2022-11-20T21:51:10.436Z,2.20
2022-11-20T21:53:37.383Z,2.20
2022-11-20T21:56:04.821Z,2.43
2022-11-20T21:58:31.712Z,2.35
2022-11-20T22:00:58.247Z,2.50
2022-11-20T22:03:24.863Z,2.20
2022-11-20T22:05:56.569Z,2.90
2022-11-20T22:08:26.731Z,3.07
2022-11-20T22:10:58.161Z,3.28
2022-11-20T22:13:44.679Z,2.40
2022-11-20T22:16:11.680Z,2.28
2022-11-20T22:18:51.934Z,2.10
2022-11-20T22:21:20.808Z,2.50
2022-11-20T22:23:47.606Z,2.10
2022-11-20T22:26:19.571Z,2.22
2022-11-20T22:28:50.672Z,2.75
2022-11-20T22:31:18.838Z,2.90
2022-11-20T22:33:45.806Z,2.60
2022-11-20T22:36:15.038Z,2.10
2022-11-20T22:38:41.953Z,2.05
2022-11-20T22:41:13.638Z,2.55
2022-11-20T22:43:41.217Z,2.13
2022-11-20T22:46:18.786Z,2.33
2022-11-20T22:48:49.604Z,3.33
2022-11-20T22:51:17.863Z,4.32
2022-11-20T22:53:44.405Z,2.63
2022-11-20T22:56:14.992Z,1.90
2022-11-20T22:58:43.987Z,1.80
2022-11-20T23:01:22.075Z,2.10
2022-11-20T23:03:50.610Z,2.55
2022-11-20T23:06:18.563Z,1.75
2022-11-20T23:08:45.636Z,2.10
2022-11-20T23:11:17.355Z,2.60
2022-11-20T23:13:44.841Z,2.30
2022-11-20T23:16:16.394Z,2.10
2022-11-20T23:18:43.664Z,2.53
2022-11-20T23:21:15.936Z,1.98
2022-11-20T23:23:43.417Z,1.83
2022-11-20T23:26:12.119Z,1.60
2022-11-20T23:28:39.930Z,2.42
2022-11-20T23:31:07.318Z,2.00
2022-11-20T23:33:40.996Z,1.60
2022-11-20T23:36:08.067Z,1.60
2022-11-20T23:38:34.833Z,1.40
2022-11-20T23:41:01.592Z,1.35
2022-11-20T23:43:28.000Z,1.70
2022-11-20T23:45:56.156Z,1.55
2022-11-20T23:48:26.211Z,1.73
2022-11-20T23:50:53.030Z,1.60
2022-11-20T23:53:21.957Z,1.63
2022-11-20T23:55:50.839Z,1.48
2022-11-20T23:58:17.783Z,1.75
